createdAt,value
2018-06-29T00:01:03.213Z,17.57
2018-06-29T00:03:33.551Z,17.60
2018-06-29T00:06:04.298Z,17.57
2018-06-29T00:08:34.799Z,17.52
2018-06-29T00:11:04.999Z,17.45
2018-06-29T00:13:35.627Z,17.43
2018-06-29T00:16:05.951Z,17.30
2018-06-29T00:18:36.540Z,17.21
2018-06-29T00:21:06.822Z,17.14
2018-06-29T00:23:37.392Z,17.07
2018-06-29T00:26:08.017Z,17.03
2018-06-29T00:28:38.498Z,16.92
2018-06-29T00:31:08.935Z,16.92
2018-06-29T00:33:39.492Z,16.98
2018-06-29T00:36:10.078Z,16.90
2018-06-29T00:38:40.328Z,16.85
2018-06-29T00:41:10.719Z,16.79
2018-06-29T00:43:40.980Z,16.67
2018-06-29T00:46:11.079Z,16.73
2018-06-29T00:48:41.296Z,16.71
2018-06-29T00:51:11.619Z,16.71
2018-06-29T00:53:42.065Z,16.63
2018-06-29T00:56:12.253Z,16.65
2018-06-29T00:58:42.520Z,16.55
2018-06-29T01:01:12.693Z,16.47
2018-06-29T01:03:43.076Z,16.51
2018-06-29T01:06:13.432Z,16.48
2018-06-29T01:08:43.754Z,16.48
2018-06-29T01:11:14.036Z,16.39
2018-06-29T01:13:44.417Z,16.33
2018-06-29T01:16:15.067Z,16.20
2018-06-29T01:18:45.454Z,16.10
2018-06-29T01:21:16.451Z,16.01
2018-06-29T01:23:52.192Z,15.99
2018-06-29T01:26:22.501Z,16.00
2018-06-29T01:28:52.703Z,15.73
2018-06-29T01:31:22.957Z,15.68
2018-06-29T01:33:53.271Z,15.72
2018-06-29T01:36:24.191Z,15.70
2018-06-29T01:38:54.407Z,15.77
2018-06-29T01:41:25.000Z,15.86
2018-06-29T01:43:55.273Z,15.87
2018-06-29T01:46:25.996Z,15.80
2018-06-29T01:48:56.314Z,15.77
2018-06-29T01:51:26.803Z,15.66
2018-06-29T01:53:57.270Z,15.53
2018-06-29T01:56:27.824Z,15.28
2018-06-29T01:58:58.171Z,15.13
2018-06-29T02:01:28.651Z,15.12
2018-06-29T02:03:58.949Z,15.13
2018-06-29T02:06:29.284Z,15.13
2018-06-29T02:08:59.535Z,15.13
2018-06-29T02:11:29.724Z,15.18
2018-06-29T02:14:00.058Z,15.25
2018-06-29T02:16:30.272Z,15.25
2018-06-29T02:19:00.442Z,15.30
2018-06-29T02:21:30.676Z,15.26
2018-06-29T02:24:01.152Z,15.30
2018-06-29T02:26:31.543Z,15.31
2018-06-29T02:29:01.788Z,15.28
2018-06-29T02:31:32.213Z,15.22
2018-06-29T02:34:02.524Z,15.20
2018-06-29T02:36:32.718Z,15.28
2018-06-29T02:39:03.160Z,15.26
2018-06-29T02:41:33.452Z,15.28
2018-06-29T02:44:03.821Z,15.35
2018-06-29T02:46:34.184Z,15.39
2018-06-29T02:49:04.492Z,15.42
2018-06-29T02:51:34.742Z,15.37
2018-06-29T02:54:05.320Z,15.34
2018-06-29T02:56:35.546Z,15.26
2018-06-29T02:59:05.851Z,15.25
2018-06-29T03:01:36.223Z,15.24
2018-06-29T03:04:06.845Z,15.09
2018-06-29T03:06:37.499Z,15.02
2018-06-29T03:09:09.371Z,14.98
2018-06-29T03:11:39.859Z,14.89
2018-06-29T03:14:10.339Z,14.90
2018-06-29T03:16:40.573Z,14.80
2018-06-29T03:19:10.928Z,14.78
2018-06-29T03:21:41.897Z,14.70
2018-06-29T03:24:12.298Z,14.64
2018-06-29T03:26:42.834Z,14.75
2018-06-29T03:29:13.225Z,14.65
2018-06-29T03:31:43.724Z,14.73
2018-06-29T03:34:14.191Z,14.83
2018-06-29T03:36:44.616Z,14.93
2018-06-29T03:39:15.154Z,15.02
2018-06-29T03:41:45.582Z,15.19
2018-06-29T03:44:15.917Z,15.35
2018-06-29T03:46:46.518Z,15.52
2018-06-29T03:49:16.977Z,15.54
2018-06-29T03:51:47.388Z,15.69
2018-06-29T03:54:17.971Z,15.78
2018-06-29T03:56:48.323Z,15.93
2018-06-29T03:59:18.786Z,16.08
2018-06-29T04:01:49.067Z,16.48
2018-06-29T04:04:19.337Z,17.46
2018-06-29T04:06:49.595Z,18.22
2018-06-29T04:09:19.956Z,18.37
2018-06-29T04:11:50.299Z,18.89
2018-06-29T04:14:20.647Z,19.69
2018-06-29T04:16:51.169Z,20.28
2018-06-29T04:19:21.679Z,20.97
2018-06-29T04:21:52.090Z,21.17
2018-06-29T04:24:22.614Z,21.13
2018-06-29T04:26:52.916Z,21.10
2018-06-29T04:29:23.085Z,21.14
2018-06-29T04:31:53.519Z,20.88
2018-06-29T04:34:23.788Z,20.67
2018-06-29T04:36:54.158Z,20.81
2018-06-29T04:39:24.661Z,20.81
2018-06-29T04:41:54.885Z,20.62
2018-06-29T04:44:25.200Z,21.35
2018-06-29T04:46:55.458Z,21.91
2018-06-29T04:49:26.026Z,22.84
2018-06-29T04:51:56.162Z,23.53
2018-06-29T04:54:26.699Z,23.96
2018-06-29T04:56:57.245Z,24.28
2018-06-29T04:59:27.522Z,24.63
2018-06-29T05:01:58.164Z,24.85
2018-06-29T05:04:28.458Z,24.99
2018-06-29T05:06:58.735Z,25.06
2018-06-29T05:09:28.967Z,25.49
2018-06-29T05:11:59.279Z,25.96
2018-06-29T05:14:29.466Z,26.44
2018-06-29T05:17:00.027Z,26.72
2018-06-29T05:19:30.540Z,26.50
2018-06-29T05:22:00.943Z,26.87
2018-06-29T05:24:31.100Z,26.72
2018-06-29T05:27:01.430Z,27.42
2018-06-29T05:29:31.473Z,26.70
2018-06-29T05:32:02.000Z,26.73
2018-06-29T05:34:32.369Z,27.56
2018-06-29T05:37:02.772Z,27.98
2018-06-29T05:39:33.117Z,28.02
2018-06-29T05:42:03.413Z,27.66
2018-06-29T05:44:33.717Z,28.15
2018-06-29T05:47:04.121Z,27.99
2018-06-29T05:49:34.470Z,27.75
2018-06-29T05:52:04.828Z,28.15
2018-06-29T05:54:35.270Z,28.82
2018-06-29T05:57:05.576Z,28.89
2018-06-29T05:59:36.164Z,29.02
2018-06-29T06:02:07.151Z,29.27
2018-06-29T06:04:37.468Z,29.24
2018-06-29T06:07:07.680Z,28.98
2018-06-29T06:09:38.282Z,29.47
2018-06-29T06:12:08.860Z,28.91
2018-06-29T06:14:39.422Z,28.36
2018-06-29T06:17:09.759Z,28.88
2018-06-29T06:19:50.807Z,28.90
2018-06-29T06:22:21.076Z,28.62
2018-06-29T06:24:51.375Z,28.54
2018-06-29T06:27:21.930Z,28.35
2018-06-29T06:29:52.340Z,28.60
2018-06-29T06:32:22.949Z,30.29
2018-06-29T06:34:53.370Z,28.91
2018-06-29T06:37:23.717Z,28.72
2018-06-29T06:39:54.264Z,29.07
2018-06-29T06:42:24.856Z,28.49
2018-06-29T06:44:54.995Z,28.51
2018-06-29T06:47:25.286Z,28.64
2018-06-29T06:49:55.508Z,28.83
2018-06-29T06:52:26.054Z,29.70
2018-06-29T06:54:56.198Z,30.03
2018-06-29T06:57:26.567Z,30.38
2018-06-29T06:59:56.809Z,31.22
2018-06-29T07:02:27.111Z,30.58
2018-06-29T07:04:57.385Z,30.33
2018-06-29T07:07:27.735Z,30.42
2018-06-29T07:09:58.328Z,30.44
2018-06-29T07:12:28.686Z,30.16
2018-06-29T07:14:58.982Z,30.78
2018-06-29T07:17:29.466Z,31.19
2018-06-29T07:19:59.717Z,31.48
2018-06-29T07:22:30.020Z,32.28
2018-06-29T07:25:00.287Z,31.92
2018-06-29T07:27:30.534Z,31.66
2018-06-29T07:30:01.055Z,31.63
2018-06-29T07:32:31.192Z,31.54
2018-06-29T07:35:01.553Z,31.75
2018-06-29T07:37:31.890Z,32.56
2018-06-29T07:40:02.580Z,31.53
2018-06-29T07:42:33.065Z,32.70
2018-06-29T07:45:03.392Z,32.44
2018-06-29T07:47:34.252Z,33.20
2018-06-29T07:50:04.893Z,33.31
2018-06-29T07:52:35.104Z,33.29
2018-06-29T07:55:05.461Z,33.38
2018-06-29T07:57:35.881Z,32.33
2018-06-29T08:00:06.826Z,32.17
2018-06-29T08:02:37.267Z,32.21
2018-06-29T08:05:07.693Z,31.78
2018-06-29T08:07:38.142Z,33.12
2018-06-29T08:10:08.460Z,32.61
2018-06-29T08:12:38.934Z,32.53
2018-06-29T08:15:09.241Z,33.27
2018-06-29T08:17:39.630Z,32.99
2018-06-29T08:20:10.007Z,32.27
2018-06-29T08:22:40.481Z,33.58
2018-06-29T08:25:15.018Z,32.51
2018-06-29T08:27:45.668Z,33.14
2018-06-29T08:30:16.064Z,33.35
2018-06-29T08:32:46.451Z,33.62
2018-06-29T08:35:17.055Z,34.48
2018-06-29T08:37:47.339Z,33.34
2018-06-29T08:40:17.771Z,33.34
2018-06-29T08:42:48.869Z,32.52
2018-06-29T08:45:20.196Z,31.34
2018-06-29T08:47:50.547Z,31.32
2018-06-29T08:50:21.137Z,30.62
2018-06-29T08:52:51.490Z,28.59
2018-06-29T08:55:21.939Z,30.04
2018-06-29T08:57:52.482Z,32.11
2018-06-29T09:00:22.778Z,32.89
2018-06-29T09:02:52.975Z,32.92
2018-06-29T09:05:23.437Z,32.90
2018-06-29T09:07:53.970Z,32.97
2018-06-29T09:10:24.583Z,33.04
2018-06-29T09:12:55.067Z,34.58
2018-06-29T09:15:25.455Z,34.32
2018-06-29T09:17:55.869Z,33.80
2018-06-29T09:20:26.483Z,33.08
2018-06-29T09:22:56.708Z,34.18
2018-06-29T09:25:27.067Z,32.42
2018-06-29T09:27:57.410Z,31.48
2018-06-29T09:30:27.860Z,31.37
2018-06-29T09:32:58.334Z,31.59
2018-06-29T09:35:28.662Z,30.98
2018-06-29T09:37:59.149Z,32.02
2018-06-29T09:40:29.448Z,32.44
2018-06-29T09:42:59.785Z,32.36
2018-06-29T09:45:30.143Z,32.32
2018-06-29T09:48:00.626Z,32.65
2018-06-29T09:50:31.024Z,32.59
2018-06-29T09:53:01.442Z,32.61
2018-06-29T09:55:31.741Z,32.07
2018-06-29T09:58:02.307Z,32.09
2018-06-29T10:00:33.389Z,31.76
2018-06-29T10:03:03.654Z,31.64
2018-06-29T10:05:34.167Z,32.77
2018-06-29T10:08:04.566Z,33.29
2018-06-29T10:10:34.771Z,32.68
2018-06-29T10:13:05.280Z,32.61
2018-06-29T10:15:35.573Z,32.89
2018-06-29T10:18:06.142Z,32.94
2018-06-29T10:20:36.520Z,32.77
2018-06-29T10:23:07.398Z,32.67
2018-06-29T10:25:37.891Z,32.28
2018-06-29T10:28:08.353Z,33.42
2018-06-29T10:30:39.340Z,33.91
2018-06-29T10:33:09.904Z,33.72
2018-06-29T10:35:40.352Z,33.08
2018-06-29T10:38:10.710Z,33.08
2018-06-29T10:40:41.065Z,34.18
2018-06-29T10:43:11.295Z,35.30
2018-06-29T10:45:41.834Z,35.43
2018-06-29T10:48:12.126Z,34.91
2018-06-29T10:50:42.666Z,34.60
2018-06-29T10:53:12.878Z,34.74
2018-06-29T10:55:43.254Z,34.64
2018-06-29T10:58:13.449Z,34.12
2018-06-29T11:00:43.890Z,33.36
2018-06-29T11:03:14.313Z,30.74
2018-06-29T11:05:44.798Z,30.07
2018-06-29T11:08:15.063Z,30.47
2018-06-29T11:10:45.428Z,30.91
2018-06-29T11:13:15.801Z,30.95
2018-06-29T11:15:46.098Z,31.27
2018-06-29T11:18:16.613Z,31.29
2018-06-29T11:20:46.933Z,30.79
2018-06-29T11:23:17.349Z,30.61
2018-06-29T11:25:47.702Z,30.73
2018-06-29T11:28:18.008Z,30.16
2018-06-29T11:30:48.448Z,29.66
2018-06-29T11:33:18.851Z,29.73
2018-06-29T11:35:49.237Z,29.65
2018-06-29T11:38:19.607Z,29.01
2018-06-29T11:40:49.933Z,28.97
2018-06-29T11:43:20.225Z,28.76
2018-06-29T11:45:50.512Z,27.34
2018-06-29T11:48:20.975Z,26.61
2018-06-29T11:50:51.252Z,26.39
2018-06-29T11:53:21.695Z,26.30
2018-06-29T11:55:51.945Z,26.24
2018-06-29T11:58:22.348Z,26.37
2018-06-29T12:00:53.156Z,26.18
2018-06-29T12:03:23.509Z,26.38
2018-06-29T12:05:54.472Z,26.77
2018-06-29T12:08:24.712Z,27.54
2018-06-29T12:10:55.380Z,27.76
2018-06-29T12:13:25.766Z,28.36
2018-06-29T12:15:56.104Z,28.43
2018-06-29T12:18:26.777Z,28.20
2018-06-29T12:20:57.141Z,28.36
2018-06-29T12:24:30.341Z,27.49
2018-06-29T12:27:00.770Z,27.53
2018-06-29T12:29:31.170Z,27.75
2018-06-29T12:32:01.734Z,27.91
2018-06-29T12:34:32.085Z,27.94
2018-06-29T12:37:02.360Z,28.86
2018-06-29T12:39:32.787Z,28.77
2018-06-29T12:42:03.234Z,29.09
2018-06-29T12:44:33.544Z,29.28
2018-06-29T12:47:07.132Z,29.26
2018-06-29T12:49:37.320Z,28.02
2018-06-29T12:52:07.743Z,27.58
2018-06-29T12:54:38.295Z,27.49
2018-06-29T12:57:08.638Z,27.20
2018-06-29T12:59:39.202Z,27.08
2018-06-29T13:02:09.673Z,27.01
2018-06-29T13:04:40.201Z,26.38
2018-06-29T13:08:34.603Z,26.63
2018-06-29T13:11:04.847Z,26.75
2018-06-29T13:13:35.151Z,27.06
2018-06-29T13:16:05.708Z,27.58
2018-06-29T13:18:36.212Z,27.22
2018-06-29T13:21:06.832Z,26.13
2018-06-29T13:23:37.043Z,25.96
2018-06-29T13:26:07.694Z,25.89
2018-06-29T13:28:38.055Z,26.08
2018-06-29T13:31:08.679Z,26.16
2018-06-29T13:33:39.113Z,26.01
2018-06-29T13:36:09.570Z,25.39
2018-06-29T13:38:40.853Z,25.43
2018-06-29T13:41:11.224Z,25.35
2018-06-29T13:43:43.297Z,25.14
2018-06-29T13:46:13.679Z,24.86
2018-06-29T13:48:46.084Z,24.81
2018-06-29T13:51:17.176Z,24.49
2018-06-29T13:53:47.521Z,24.16
2018-06-29T13:56:18.005Z,24.13
2018-06-29T13:58:48.249Z,23.98
2018-06-29T14:01:18.435Z,23.79
2018-06-29T14:03:48.828Z,23.88
2018-06-29T14:06:19.202Z,23.84
2018-06-29T14:08:49.444Z,23.76
2018-06-29T14:11:20.026Z,23.46
2018-06-29T14:13:50.801Z,23.25
2018-06-29T14:16:21.304Z,23.13
2018-06-29T14:18:51.647Z,23.09
2018-06-29T14:21:21.977Z,23.06
2018-06-29T14:23:52.276Z,23.21
2018-06-29T14:26:22.502Z,23.24
2018-06-29T14:28:52.988Z,23.14
2018-06-29T14:31:23.254Z,23.19
2018-06-29T14:33:53.825Z,23.32
2018-06-29T14:36:24.078Z,23.20
2018-06-29T14:38:54.340Z,23.11
2018-06-29T14:41:24.666Z,23.00
2018-06-29T14:43:54.948Z,22.93
2018-06-29T14:46:25.240Z,23.11
2018-06-29T14:48:55.504Z,23.02
2018-06-29T14:51:25.734Z,23.05
2018-06-29T14:53:56.037Z,23.25
2018-06-29T14:56:26.373Z,23.51
2018-06-29T14:58:56.734Z,23.34
2018-06-29T15:01:27.100Z,23.44
2018-06-29T15:03:57.456Z,23.34
2018-06-29T15:06:27.812Z,23.47
2018-06-29T15:08:58.056Z,23.61
2018-06-29T15:11:28.366Z,23.82
2018-06-29T15:13:58.628Z,24.15
2018-06-29T15:16:29.107Z,24.25
2018-06-29T15:18:59.605Z,24.22
2018-06-29T15:21:30.114Z,24.21
2018-06-29T15:24:01.512Z,24.24
2018-06-29T15:26:32.533Z,24.21
2018-06-29T15:29:03.170Z,24.15
2018-06-29T15:31:33.547Z,24.22
2018-06-29T15:34:03.861Z,24.09
2018-06-29T15:36:34.209Z,23.67
2018-06-29T15:39:05.105Z,23.86
2018-06-29T15:41:35.609Z,23.91
2018-06-29T15:44:05.945Z,23.95
2018-06-29T15:46:36.295Z,23.84
2018-06-29T15:49:07.763Z,23.77
2018-06-29T15:51:38.061Z,23.79
2018-06-29T15:54:08.551Z,23.80
2018-06-29T15:56:38.893Z,23.65
2018-06-29T15:59:09.404Z,23.64
2018-06-29T16:01:39.800Z,23.88
2018-06-29T16:04:10.296Z,23.83
2018-06-29T16:06:40.714Z,23.75
2018-06-29T16:09:11.396Z,23.71
2018-06-29T16:11:41.792Z,23.54
2018-06-29T16:14:12.074Z,23.57
2018-06-29T16:16:42.652Z,23.65
2018-06-29T16:19:13.142Z,23.49
2018-06-29T16:21:43.595Z,23.44
2018-06-29T16:24:13.900Z,23.37
2018-06-29T16:26:44.171Z,23.34
2018-06-29T16:29:14.533Z,23.21
2018-06-29T16:31:45.841Z,23.23
2018-06-29T16:34:16.091Z,23.19
2018-06-29T16:36:46.573Z,23.06
2018-06-29T16:39:17.058Z,23.14
2018-06-29T16:41:47.474Z,23.07
2018-06-29T16:44:17.907Z,22.92
2018-06-29T16:46:48.475Z,22.89
2018-06-29T16:49:18.745Z,22.81
2018-06-29T16:51:49.154Z,22.73
2018-06-29T16:54:19.440Z,22.61
2018-06-29T16:56:49.919Z,22.66
2018-06-29T16:59:20.292Z,22.67
2018-06-29T17:01:50.600Z,22.61
2018-06-29T17:04:20.988Z,22.51
2018-06-29T17:06:51.265Z,22.52
2018-06-29T17:09:21.391Z,22.44
2018-06-29T17:11:51.708Z,22.40
2018-06-29T17:14:22.127Z,22.42
2018-06-29T17:16:52.555Z,22.35
2018-06-29T17:19:22.929Z,22.33
2018-06-29T17:21:53.075Z,22.33
2018-06-29T17:24:23.644Z,22.30
2018-06-29T17:26:54.065Z,22.34
2018-06-29T17:29:24.428Z,22.39
2018-06-29T17:31:54.831Z,22.31
2018-06-29T17:34:25.216Z,22.26
2018-06-29T17:36:55.642Z,22.27
2018-06-29T17:39:26.074Z,22.36
2018-06-29T17:41:56.411Z,22.38
2018-06-29T17:44:26.745Z,22.33
2018-06-29T17:46:57.149Z,22.20
2018-06-29T17:49:27.641Z,22.06
2018-06-29T17:51:58.062Z,22.04
2018-06-29T17:54:28.406Z,22.10
2018-06-29T17:56:58.805Z,22.04
2018-06-29T17:59:29.188Z,22.02
2018-06-29T18:01:59.549Z,21.97
2018-06-29T18:04:29.974Z,21.86
2018-06-29T18:07:00.341Z,21.76
2018-06-29T18:09:30.673Z,21.67
2018-06-29T18:12:01.056Z,21.63
2018-06-29T18:14:31.603Z,21.73
2018-06-29T18:17:01.996Z,21.69
2018-06-29T18:19:32.227Z,21.79
2018-06-29T18:22:03.520Z,21.78
2018-06-29T18:24:33.820Z,21.63
2018-06-29T18:27:04.158Z,21.48
2018-06-29T18:29:34.466Z,21.39
2018-06-29T18:32:05.166Z,21.35
2018-06-29T18:34:35.648Z,21.33
2018-06-29T18:37:06.026Z,21.31
2018-06-29T18:39:36.483Z,21.27
2018-06-29T18:43:31.370Z,21.26
2018-06-29T18:46:01.799Z,21.34
2018-06-29T18:48:32.283Z,21.38
2018-06-29T18:51:02.669Z,21.46
2018-06-29T18:53:33.127Z,21.42
2018-06-29T18:56:03.448Z,21.48
2018-06-29T18:58:33.842Z,21.49
2018-06-29T19:01:04.395Z,21.52
2018-06-29T19:03:34.715Z,21.52
2018-06-29T19:06:05.143Z,21.55
2018-06-29T19:08:35.577Z,21.53
2018-06-29T19:11:06.082Z,21.44
2018-06-29T19:13:36.448Z,21.45
2018-06-29T19:16:07.045Z,21.53
2018-06-29T19:18:37.478Z,21.52
2018-06-29T19:21:08.169Z,21.48
2018-06-29T19:23:38.672Z,21.41
2018-06-29T19:26:09.039Z,21.43
2018-06-29T19:28:39.551Z,21.40
2018-06-29T19:31:09.924Z,21.40
2018-06-29T19:33:40.320Z,21.48
2018-06-29T19:36:10.716Z,21.30
2018-06-29T19:38:41.188Z,21.31
2018-06-29T19:41:11.539Z,21.21
2018-06-29T19:43:41.879Z,21.06
2018-06-29T19:46:12.378Z,21.08
2018-06-29T19:48:42.730Z,21.14
2018-06-29T19:51:13.087Z,21.02
2018-06-29T19:53:43.848Z,20.92
2018-06-29T19:56:14.188Z,20.76
2018-06-29T19:58:44.585Z,20.69
2018-06-29T20:01:14.930Z,20.73
2018-06-29T20:03:45.319Z,20.72
2018-06-29T20:06:15.727Z,20.68
2018-06-29T20:08:46.066Z,20.68
2018-06-29T20:11:16.526Z,20.66
2018-06-29T20:13:46.871Z,20.72
2018-06-29T20:16:17.124Z,20.70
2018-06-29T20:18:47.587Z,20.70
2018-06-29T20:21:17.887Z,20.72
2018-06-29T20:23:48.373Z,20.76
2018-06-29T20:26:18.693Z,20.72
2018-06-29T20:28:49.089Z,20.78
2018-06-29T20:31:19.569Z,20.72
2018-06-29T20:33:49.985Z,20.70
2018-06-29T20:36:21.489Z,20.68
2018-06-29T20:38:52.068Z,20.73
2018-06-29T20:41:22.207Z,20.83
2018-06-29T20:43:52.660Z,20.84
2018-06-29T20:46:23.232Z,20.87
2018-06-29T20:48:54.360Z,20.91
2018-06-29T20:51:24.773Z,20.98
2018-06-29T20:53:55.016Z,20.99
2018-06-29T20:56:26.419Z,20.96
2018-06-29T20:58:56.762Z,20.91
2018-06-29T21:01:27.073Z,20.86
2018-06-29T21:03:57.548Z,20.91
2018-06-29T21:06:28.132Z,20.92
2018-06-29T21:08:58.658Z,20.94
2018-06-29T21:11:28.946Z,20.87
2018-06-29T21:13:59.422Z,20.85
2018-06-29T21:16:30.052Z,20.89
2018-06-29T21:19:01.840Z,20.84
2018-06-29T21:21:32.412Z,20.77
2018-06-29T21:24:02.698Z,20.72
2018-06-29T21:26:33.308Z,20.60
2018-06-29T21:29:03.923Z,20.55
2018-06-29T21:31:34.840Z,20.52
2018-06-29T21:34:06.636Z,20.47
2018-06-29T21:36:36.982Z,20.45
2018-06-29T21:39:09.720Z,20.28
2018-06-29T21:41:40.973Z,20.25
